NEODyS-2

Near Earth Objects - Dynamic Site
NEODyS ∴ Observatories ∴ Site 691 ∴ Obs & residuals
Contact »
691  ▹ 
OBSERVATIONS AND RESIDUALS

691-Steward Observatory, Kitt Peak-Spacewatch

Detections | Residuals | Detections & Residuals

[1-200] [201-400] [401-600] [601-800] [801-1000] [1001-1200] [1201-1400] [1401-1600] [1601-1800] [1801-2000] [2001-2200] [2201-2400] [2401-2600] [2601-2800] [2801-3000] [3001-3200] [3201-3400] [3401-3600] [3601-3800] [3801-4000] [4001-4200] [4201-4400] [4401-4600] [4601-4800] [4801-5000] [5001-5200] [5201-5400] [5401-5600] [5601-5800] [5801-6000] [6001-6200] [6201-6400] [6401-6600] [6601-6800] [6801-7000] [7001-7200] [7201-7400] [7401-7600] [7601-7800] [7801-8000] [8001-8200] [8201-8400] [8401-8600] [8601-8800] [8801-9000] [9001-9200] [9201-9400] [9401-9600] [9601-9800] [9801-10000] [10001-10200] [10201-10400] [10401-10600] [10601-10800] [10801-11000] [11001-11200] [11201-11400] [11401-11600] [11601-11800] [11801-12000] [12001-12200] [12201-12400] [12401-12600] [12601-12800] [12801-13000] [13001-13200] [13201-13400] [13401-13600] [13601-13800] [13801-14000] [14001-14200] [14201-14400] [14401-14600] [14601-14800] [14801-15000] [15001-15200] [15201-15400] [15401-15600] [15601-15800] [15801-16000] [16001-16200] [16201-16400] [16401-16600] [16601-16800] [16801-17000] [17001-17200] [17201-17400] [17401-17600] [17601-17800] [17801-18000] [18001-18200] [18201-18400] [18401-18600] [18601-18800] [18801-19000] [19001-19200] [19201-19400] [19401-19600] [19601-19800] [19801-20000] [20001-20200] [20201-20400] [20401-20600] [20601-20800] [20801-21000] [21001-21200] [21201-21400] [21401-21600] [21601-21800] [21801-22000] [22001-22200] [22201-22400] [22401-22600] [22601-22800] [22801-23000] [23001-23200] [23201-23400] [23401-23600] [23601-23800] [23801-24000] [24001-24200] [24201-24400] [24401-24600] [24601-24800] [24801-25000] [25001-25200] [25201-25400] [25401-25600] [25601-25800] [25801-26000] [26001-26200] [26201-26400] [26401-26600] [26601-26800] [26801-27000] [27001-27200] [27201-27400] [27401-27600] [27601-27800] [27801-28000] [28001-28200] [28201-28400] [28401-28600] [28601-28800] [28801-29000] [29001-29200] [29201-29400] [29401-29600] [29601-29800] [29801-30000] [30001-30200] [30201-30400] [30401-30600] [30601-30800] [30801-31000] [31001-31200] [31201-31400] [31401-31600] [31601-31800] [31801-32000] [32001-32200] [32201-32400] [32401-32600] [32601-32800] [32801-33000] [33001-33200] [33201-33400] [33401-33600] [33601-33800] [33801-34000] [34001-34200] [34201-34400] [34401-34600] [34601-34800] [34801-35000] [35001-35200] [35201-35400] [35401-35600] [35601-35800] [35801-36000] [36001-36200] [36201-36400] [36401-36600] [36601-36800] [36801-37000] [37001-37200] [37201-37400] [37401-37600] [37601-37800] [37801-38000] [38001-38200] [38201-38400] [38401-38600] [38601-38800] [38801-39000] [39001-39200] [39201-39400] [39401-39600] [39601-39800] [39801-40000] [40001-40200] [40201-40400] [40401-40600] [40601-40800] [40801-41000] [41001-41200] [41201-41400] [41401-41600] [41601-41800] [41801-42000] [42001-42200] [42201-42400] [42401-42600] [42601-42800] [42801-43000] [43001-43200] [43201-43400] [43401-43600] [43601-43800] [43801-44000] [44001-44200] [44201-44400] [44401-44600] [44601-44800] [44801-45000] [45001-45200] [45201-45400] [45401-45600] [45601-45800] [45801-46000] [46001-46200] [46201-46400] [46401-46600] [46601-46800] [46801-47000] [47001-47200] [47201-47400] [47401-47600] [47601-47800] [47801-48000] [48001-48200] [48201-48400] [48401-48600] [48601-48800] [48801-49000] [49001-49200] [49201-49400] [49401-49600] [49601-49800] [49801-50000] [50001-50200] [50201-50388]

Designation T Tech N Date Right Ascension Declination Apparent Magnitude Star Catalog Site code χ Used A Used M
yr-mo-day precision hr:min:sec precision rms F bias residual deg min sec precision rms F bias residual mag/col rms residual
2014WP364 O C 2014-12-11.40558 1.000E-05 07:46:37.680 1.500E-01 0.500 F -0.025 0.070 +18° 46' 14.00" 1.000E-01 0.500 F 0.278 -0.126 o 691 0.31 Yes No
2014WP364 O C 2014-12-11.41573 1.000E-05 07:46:37.700 1.500E-01 0.500 F -0.025 0.100 +18° 46' 28.90" 1.000E-01 0.500 F 0.278 -0.050 o 691 0.24 Yes No
2014WP364 O C 2014-12-11.42585 1.000E-05 07:46:37.710 1.500E-01 0.500 F -0.025 -0.007 +18° 46' 43.90" 1.000E-01 0.500 F 0.278 0.189 o 691 0.40 Yes No
2008WJ60 O C 2014-12-12.08571 1.000E-05 03:15:04.800 1.500E-01 0.500 F -0.219 -0.241 +25° 25' 44.00" 1.000E-01 0.500 F 0.254 -0.070 o 691 0.51 Yes No
2008WJ60 O C 2014-12-12.11508 1.000E-05 03:15:10.400 1.500E-01 0.500 F -0.219 -0.257 +25° 22' 43.90" 1.000E-01 0.500 F 0.254 0.017 o 691 0.52 Yes No
2008WJ60 O C 2014-12-12.14445 1.000E-05 03:15:15.930 1.500E-01 0.500 F -0.219 -0.230 +25° 19' 43.00" 1.000E-01 0.500 F 0.254 -0.216 o 691 0.64 Yes No
2004QQ O C H 2014-12-12.17805 1.000E-05 03:31:34.760 1.500E-01 0.500 F -0.176 -0.165 +27° 41' 56.90" 1.000E-01 0.500 F 0.248 -0.086 18.4 V 0.70 0.76 o 691 0.37 Yes Yes
2004QQ O C H 2014-12-12.20460 1.000E-05 03:31:33.500 1.500E-01 0.500 F -0.176 -0.257 +27° 41' 34.80" 1.000E-01 0.500 F 0.248 -0.036 19.0 V 0.70 1.36 o 691 0.52 Yes Yes
2004QQ O C H 2014-12-12.23119 1.000E-05 03:31:32.240 1.500E-01 0.500 F -0.176 -0.308 +27° 41' 12.50" 1.000E-01 0.500 F 0.248 -0.035 19.5 V 0.70 1.86 o 691 0.62 Yes Yes
2009XO O C 2014-12-15.09235 1.000E-05 03:42:03.750 1.500E-01 0.500 F -0.162 -0.215 +20° 37' 03.40" 1.000E-01 0.500 F 0.148 -0.006 20.0 V 0.70 -0.13 o 691 0.43 Yes Yes
2009XO O C 2014-12-15.15645 1.000E-05 03:41:52.760 1.500E-01 0.500 F -0.162 -0.582 +20° 36' 34.90" 1.000E-01 0.500 F 0.148 0.318 19.8 V 0.70 -0.33 o 691 1.33 Yes Yes
2009XO O C 2014-12-15.22402 1.000E-05 03:41:41.140 1.500E-01 0.500 F -0.162 0.155 +20° 36' 02.80" 1.000E-01 0.500 F 0.148 -0.257 19.9 V 0.70 -0.23 o 691 0.60 Yes Yes
2014TZ O C H 2014-12-20.15467 1.000E-05 04:01:43.350 1.500E-01 0.500 F -0.242 0.216 +16° 59' 46.20" 1.000E-01 0.500 F 0.163 0.999 20.9 V 0.70 0.12 o 691 2.05 Yes Yes
2014TZ O C H 2014-12-20.17316 1.000E-05 04:01:45.820 1.500E-01 0.500 F -0.242 0.009 +16° 59' 44.80" 1.000E-01 0.500 F 0.163 0.398 21.0 V 0.70 0.22 o 691 0.80 Yes Yes
2011WK15 O C H 2014-12-20.30490 1.000E-05 07:48:39.580 1.500E-01 0.500 F 0.067 0.160 +16° 23' 19.80" 1.000E-01 0.500 F 0.229 -0.031 o 691 0.33 Yes No
2011WK15 O C H 2014-12-20.32520 1.000E-05 07:48:41.210 1.500E-01 0.500 F 0.067 0.072 +16° 23' 33.40" 1.000E-01 0.500 F 0.229 -0.150 19.5 V 0.70 0.48 o 691 0.33 Yes Yes
2011WK15 O C H 2014-12-20.34546 1.000E-05 07:48:42.840 1.500E-01 0.500 F 0.067 0.165 +16° 23' 47.00" 1.000E-01 0.500 F 0.229 -0.170 o 691 0.47 Yes No
2014RL12 O C 2014-12-20.38434 1.000E-05 08:59:42.280 1.500E-01 0.500 F 0.035 -0.309 +21° 42' 16.70" 1.000E-01 0.500 F 0.198 0.083 o 691 0.65 Yes No
2014RL12 O C 2014-12-20.40469 1.000E-05 08:59:34.420 1.500E-01 0.500 F 0.035 -0.344 +21° 40' 31.00" 1.000E-01 0.500 F 0.198 0.163 o 691 0.77 Yes No
2014RL12 O C 2014-12-20.42503 1.000E-05 08:59:26.570 1.500E-01 0.500 F 0.035 -0.274 +21° 38' 45.00" 1.000E-01 0.500 F 0.198 0.022 o 691 0.56 Yes No
2000VN2 O C 2014-12-20.50395 1.000E-05 13:57:04.950 1.500E-01 0.500 F 0.315 -0.369 +02° 30' 52.70" 1.000E-01 0.500 F 0.206 0.069 o 691 0.75 Yes No
2001MZ7 O C 2014-12-20.50889 1.000E-05 14:13:19.060 1.500E-01 0.500 F 0.212 -0.920 +01° 03' 33.70" 1.000E-01 0.500 F 0.236 0.913 o 691 2.59 Yes No
2000VN2 O C 2014-12-20.51662 1.000E-05 13:57:07.080 1.500E-01 0.500 F 0.315 -0.396 +02° 30' 43.60" 1.000E-01 0.500 F 0.206 -0.021 o 691 0.79 Yes No
2001MZ7 O C 2014-12-20.52155 1.000E-05 14:13:21.690 1.500E-01 0.500 F 0.212 -0.490 +01° 03' 30.70" 1.000E-01 0.500 F 0.236 0.014 o 691 0.98 Yes No
2000VN2 O C 2014-12-20.52928 1.000E-05 13:57:09.220 1.500E-01 0.500 F 0.315 -0.218 +02° 30' 34.50" 1.000E-01 0.500 F 0.206 -0.119 o 691 0.50 Yes No
2001MZ7 O C 2014-12-20.53422 1.000E-05 14:13:24.320 1.500E-01 0.500 F 0.212 -0.065 +01° 03' 28.50" 1.000E-01 0.500 F 0.236 -0.083 o 691 0.21 Yes No
2011CS4 O C 2014-12-21.39145 1.000E-05 09:18:12.170 1.500E-01 0.500 F 0.028 -0.076 +18° 14' 27.70" 1.000E-01 0.500 F 0.182 -0.066 o 691 0.20 Yes No
2011CS4 O C 2014-12-21.41174 1.000E-05 09:18:10.630 1.500E-01 0.500 F 0.028 -0.238 +18° 14' 11.00" 1.000E-01 0.500 F 0.182 -0.046 o 691 0.48 Yes No
2011CS4 O C 2014-12-21.43547 1.000E-05 09:18:08.830 1.500E-01 0.500 F 0.028 -0.292 +18° 13' 51.20" 1.000E-01 0.500 F 0.182 -0.179 o 691 0.68 Yes No
2014RL12 O C 2014-12-22.33317 1.000E-05 08:48:04.320 1.500E-01 0.500 F 0.058 -0.269 +18° 57' 26.70" 1.000E-01 0.500 F 0.173 -0.290 o 691 0.80 Yes No
2014RL12 O C 2014-12-22.36221 1.000E-05 08:47:53.980 1.500E-01 0.500 F 0.058 -0.219 +18° 55' 04.90" 1.000E-01 0.500 F 0.173 -0.092 o 691 0.48 Yes No
2014RL12 O C 2014-12-22.38253 1.000E-05 08:47:46.730 1.500E-01 0.500 F 0.058 -0.256 +18° 53' 25.50" 1.000E-01 0.500 F 0.173 -0.034 o 691 0.52 Yes No
2000EZ148 O C 2014-12-23.48768 1.000E-05 09:22:27.270 1.500E-01 0.500 F 0.063 -0.619 +27° 45' 39.30" 1.000E-01 0.500 F 0.239 -0.310 o 691 1.39 Yes No
2000EZ148 O C 2014-12-23.50296 1.000E-05 09:22:26.750 1.500E-01 0.500 F 0.063 -0.902 +27° 45' 43.50" 1.000E-01 0.500 F 0.239 0.121 o 691 1.82 Yes No
2000EZ148 O C 2014-12-23.51576 1.000E-05 09:22:26.240 1.500E-01 0.500 F 0.063 -2.128 +27° 45' 49.00" 1.000E-01 0.500 F 0.239 2.470 o 691 6.51 No No
2007AB2 O C 2015-01-15.40498 1.000E-05 10:54:27.270 1.500E-01 0.500 F 0.154 -0.342 +06° 45' 38.40" 1.000E-01 0.500 F 0.101 -0.178 19.3 V 0.70 -0.26 o 691 0.77 Yes Yes
2007AB2 O C 2015-01-15.42520 1.000E-05 10:54:24.340 1.500E-01 0.500 F 0.154 -0.257 +06° 46' 02.00" 1.000E-01 0.500 F 0.101 0.091 19.3 V 0.70 -0.26 o 691 0.55 Yes Yes
2007AB2 O C 2015-01-15.44541 1.000E-05 10:54:21.390 1.500E-01 0.500 F 0.154 -0.429 +06° 46' 25.30" 1.000E-01 0.500 F 0.101 0.119 19.5 V 0.70 -0.06 o 691 0.90 Yes Yes
1998MN14 O C H 2015-01-16.08323 1.000E-05 04:16:01.020 1.500E-01 0.500 F -0.185 0.212 +15° 14' 39.70" 1.000E-01 0.500 F 0.324 0.651 21.0 V 0.70 0.49 o 691 1.37 Yes Yes
2010OC101 O C 2015-01-16.09029 1.000E-05 04:07:43.630 1.500E-01 0.500 F -0.236 0.479 +10° 11' 49.90" 1.000E-01 0.500 F 0.079 0.272 20.5 V 0.70 -0.18 o 691 1.10 Yes Yes
2010OC101 O C 2015-01-16.12940 1.000E-05 04:07:47.950 1.500E-01 0.500 F -0.236 -0.324 +10° 11' 14.70" 1.000E-01 0.500 F 0.079 0.212 20.3 V 0.70 -0.38 o 691 0.78 Yes Yes
1998MN14 O C H 2015-01-16.15804 1.000E-05 04:15:59.280 1.500E-01 0.500 F -0.185 -0.154 +15° 13' 54.70" 1.000E-01 0.500 F 0.324 -1.043 21.0 V 0.70 0.49 o 691 2.11 Yes Yes
2010OC101 O C 2015-01-16.16614 1.000E-05 04:07:52.050 1.500E-01 0.500 F -0.236 -0.220 +10° 10' 38.90" 1.000E-01 0.500 F 0.079 -2.465 19.9 V 0.70 -0.78 o 691 4.92 No Yes
Ivar O C 2015-01-16.38853 1.000E-05 10:15:22.670 1.500E-01 0.500 F 0.092 -0.191 +12° 03' 21.00" 1.000E-01 0.500 F 0.239 -0.009 16.5 V 0.70 -0.16 o 691 0.38 Yes Yes
Ivar O C 2015-01-16.40969 1.000E-05 10:15:21.790 1.500E-01 0.500 F 0.092 -0.175 +12° 03' 29.80" 1.000E-01 0.500 F 0.239 0.047 16.9 V 0.70 0.24 o 691 0.36 Yes Yes
Ivar O C 2015-01-16.42737 1.000E-05 10:15:21.060 1.500E-01 0.500 F 0.092 -0.072 +12° 03' 37.10" 1.000E-01 0.500 F 0.239 0.049 16.7 V 0.70 0.04 o 691 0.18 Yes Yes
2003AZ2 O C 2015-01-16.45699 1.000E-05 10:52:31.270 1.500E-01 0.500 F -0.007 -1.052 +11° 40' 41.10" 1.000E-01 0.500 F 0.085 -0.395 21.2 V 0.70 0.81 o 691 2.25 Yes Yes
2003AZ2 O C 2015-01-16.47369 1.000E-05 10:52:31.110 1.500E-01 0.500 F -0.007 -0.261 +11° 41' 03.30" 1.000E-01 0.500 F 0.085 -0.123 20.6 V 0.70 0.21 o 691 0.58 Yes Yes
2003AZ2 O C 2015-01-16.49040 1.000E-05 10:52:30.880 1.500E-01 0.500 F -0.007 -0.504 +11° 41' 25.80" 1.000E-01 0.500 F 0.085 0.445 20.5 V 0.70 0.12 o 691 1.35 Yes Yes
2006OD7 O C 2015-01-17.38854 1.000E-05 10:32:02.200 1.500E-01 0.500 F 0.064 0.005 +14° 50' 38.40" 1.000E-01 0.500 F 0.138 0.047 20.3 V 0.70 -0.19 o 691 0.09 Yes Yes
2006OD7 O C 2015-01-17.40769 1.000E-05 10:32:01.670 1.500E-01 0.500 F 0.064 0.047 +14° 51' 26.60" 1.000E-01 0.500 F 0.138 0.266 20.2 V 0.70 -0.29 o 691 0.54 Yes Yes
2006OD7 O C 2015-01-17.42678 1.000E-05 10:32:01.140 1.500E-01 0.500 F 0.064 0.103 +14° 52' 14.20" 1.000E-01 0.500 F 0.138 0.057 20.1 V 0.70 -0.39 o 691 0.24 Yes Yes
2002RX211 O C 2015-01-17.45819 1.000E-05 11:01:42.760 1.500E-01 0.500 F 0.090 -0.232 +16° 14' 39.70" 1.000E-01 0.500 F 0.204 -0.130 18.9 V 0.70 0.05 o 691 0.53 Yes Yes
2002RX211 O C 2015-01-17.48188 1.000E-05 11:01:41.960 1.500E-01 0.500 F 0.090 -0.057 +16° 14' 59.70" 1.000E-01 0.500 F 0.204 -0.078 19.0 V 0.70 0.15 o 691 0.19 Yes Yes
2002RX211 O C 2015-01-17.50213 1.000E-05 11:01:41.270 1.500E-01 0.500 F 0.090 -0.025 +16° 15' 16.70" 1.000E-01 0.500 F 0.204 -0.068 19.2 V 0.70 0.35 o 691 0.15 Yes Yes
2004XM14 O C 2015-01-18.12434 1.000E-05 03:55:25.460 1.500E-01 0.500 F -0.208 -0.586 +15° 23' 49.90" 1.000E-01 0.500 F 0.147 -0.227 20.2 V 0.70 -0.20 o 691 1.26 Yes Yes
2004XM14 O C 2015-01-18.15090 1.000E-05 03:55:23.930 1.500E-01 0.500 F -0.208 -0.302 +15° 24' 13.30" 1.000E-01 0.500 F 0.147 -0.437 20.0 V 0.70 -0.40 o 691 1.07 Yes Yes
2004XM14 O C 2015-01-18.17747 1.000E-05 03:55:22.390 1.500E-01 0.500 F -0.208 -0.198 +15° 24' 37.40" 1.000E-01 0.500 F 0.147 0.101 20.3 V 0.70 -0.11 o 691 0.45 Yes Yes
2014NE52 O C 2015-01-18.38517 1.000E-05 10:32:07.260 1.500E-01 0.500 F 0.015 -0.155 +19° 26' 48.30" 1.000E-01 0.500 F 0.295 -0.039 19.3 V 0.70 0.30 o 691 0.32 Yes Yes
2014NE52 O C 2015-01-18.40542 1.000E-05 10:32:04.640 1.500E-01 0.500 F 0.015 -0.130 +19° 27' 04.30" 1.000E-01 0.500 F 0.295 0.017 19.2 V 0.70 0.20 o 691 0.26 Yes Yes
2014NE52 O C 2015-01-18.42566 1.000E-05 10:32:02.010 1.500E-01 0.500 F 0.015 -0.231 +19° 27' 20.20" 1.000E-01 0.500 F 0.295 0.052 19.3 V 0.70 0.30 o 691 0.48 Yes Yes
1998PB1 O C 2015-01-18.46169 1.000E-05 10:48:30.200 1.500E-01 0.500 F 0.061 -0.089 +03° 20' 45.90" 1.000E-01 0.500 F 0.155 0.003 21.4 V 0.70 0.16 o 691 0.18 Yes Yes
1993BW3 O C 2015-01-18.46415 1.000E-05 11:00:11.840 1.500E-01 0.500 F 0.198 -0.301 +03° 22' 40.40" 1.000E-01 0.500 F 0.061 0.026 17.4 V 0.70 -0.09 o 691 0.60 Yes Yes
Zephyr O C 2015-01-18.46415 1.000E-05 10:56:12.910 1.500E-01 0.500 F 0.168 -0.468 +04° 13' 58.60" 1.000E-01 0.500 F 0.003 0.073 20.2 V 0.70 -0.21 o 691 0.95 Yes Yes
1998PB1 O C 2015-01-18.48189 1.000E-05 10:48:29.590 1.500E-01 0.500 F 0.061 -0.326 +03° 20' 45.20" 1.000E-01 0.500 F 0.155 -0.085 21.2 V 0.70 -0.04 o 691 0.67 Yes Yes
1993BW3 O C 2015-01-18.48435 1.000E-05 11:00:10.220 1.500E-01 0.500 F 0.198 -0.102 +03° 22' 31.00" 1.000E-01 0.500 F 0.061 -0.167 17.4 V 0.70 -0.09 o 691 0.39 Yes Yes
Zephyr O C 2015-01-18.48435 1.000E-05 10:56:12.290 1.500E-01 0.500 F 0.168 -0.892 +04° 14' 03.50" 1.000E-01 0.500 F 0.003 1.100 19.9 V 0.70 -0.51 o 691 2.83 Yes Yes
1998PB1 O C 2015-01-18.50208 1.000E-05 10:48:29.000 1.500E-01 0.500 F 0.061 -0.276 +03° 20' 44.40" 1.000E-01 0.500 F 0.155 -0.273 21.3 V 0.70 0.06 o 691 0.78 Yes Yes
1993BW3 O C 2015-01-18.50455 1.000E-05 11:00:08.610 1.500E-01 0.500 F 0.198 0.233 +03° 22' 22.00" 1.000E-01 0.500 F 0.061 0.040 18.9 V 0.70 1.42 o 691 0.47 Yes Yes
Zephyr O C 2015-01-18.50455 1.000E-05 10:56:11.720 1.500E-01 0.500 F 0.168 -0.574 +04° 14' 06.70" 1.000E-01 0.500 F 0.003 0.427 20.2 V 0.70 -0.21 o 691 1.43 Yes Yes
1994CK1 O C 2015-01-19.45726 1.000E-05 10:50:08.850 1.500E-01 0.500 F 0.175 -0.366 +07° 45' 54.50" 1.000E-01 0.500 F 0.136 0.007 20.8 V 0.70 -0.20 o 691 0.73 Yes Yes
1994CK1 O C 2015-01-19.47747 1.000E-05 10:50:07.650 1.500E-01 0.500 F 0.175 -0.779 +07° 45' 59.90" 1.000E-01 0.500 F 0.136 -0.096 20.8 V 0.70 -0.20 o 691 1.57 Yes Yes
1994CK1 O C 2015-01-19.49768 1.000E-05 10:50:06.520 1.500E-01 0.500 F 0.175 -0.161 +07° 46' 05.90" 1.000E-01 0.500 F 0.136 0.407 20.8 V 0.70 -0.20 o 691 0.87 Yes Yes
2004XM14 O C 2015-01-20.08692 1.000E-05 03:53:43.860 1.500E-01 0.500 F -0.233 -0.305 +15° 52' 27.90" 1.000E-01 0.500 F 0.262 -0.734 20.4 V 0.70 -0.08 o 691 1.59 Yes Yes
2004XM14 O C 2015-01-20.10035 1.000E-05 03:53:43.180 1.500E-01 0.500 F -0.233 -0.298 +15° 52' 40.20" 1.000E-01 0.500 F 0.262 -0.066 20.3 V 0.70 -0.18 o 691 0.61 Yes Yes
2004XM14 O C 2015-01-20.11380 1.000E-05 03:53:42.500 1.500E-01 0.500 F -0.233 -0.274 +15° 52' 51.80" 1.000E-01 0.500 F 0.262 -0.102 20.5 V 0.70 0.02 o 691 0.59 Yes Yes
Ivar O C 2015-01-20.43541 1.000E-05 10:12:26.800 1.500E-01 0.500 F 0.050 -0.256 +12° 32' 42.20" 1.000E-01 0.500 F 0.246 0.041 16.5 V 0.70 -0.07 o 691 0.52 Yes Yes
Ivar O C 2015-01-20.45570 1.000E-05 10:12:25.810 1.500E-01 0.500 F 0.050 -0.184 +12° 32' 51.60" 1.000E-01 0.500 F 0.246 0.196 16.4 V 0.70 -0.17 o 691 0.54 Yes Yes
Ivar O C 2015-01-20.47597 1.000E-05 10:12:24.820 1.500E-01 0.500 F 0.050 -0.139 +12° 33' 00.40" 1.000E-01 0.500 F 0.246 -0.229 16.3 V 0.70 -0.26 o 691 0.54 Yes Yes
2003AZ2 O C 2015-01-20.50151 1.000E-05 10:51:30.320 1.500E-01 0.500 F 0.030 -0.202 +13° 14' 06.00" 1.000E-01 0.500 F 0.123 0.118 20.2 V 0.70 -0.04 o 691 0.47 Yes Yes
2003AZ2 O C 2015-01-20.52180 1.000E-05 10:51:29.830 1.500E-01 0.500 F 0.030 -0.180 +13° 14' 35.70" 1.000E-01 0.500 F 0.123 0.388 20.3 V 0.70 0.06 o 691 0.86 Yes Yes
2003AZ2 O C 2015-01-20.54214 1.000E-05 10:51:29.330 1.500E-01 0.500 F 0.030 -0.344 +13° 15' 05.40" 1.000E-01 0.500 F 0.123 0.600 20.5 V 0.70 0.26 o 691 1.39 Yes Yes
1999JV6 O C 2015-01-21.21954 1.000E-05 09:10:07.340 1.500E-01 0.500 F 0.052 -0.362 +14° 04' 42.70" 1.000E-01 0.500 F 0.210 -0.013 16.9 V 0.70 0.52 o 691 0.72 Yes Yes
1999JV6 O C 2015-01-21.24330 1.000E-05 09:09:58.280 1.500E-01 0.500 F 0.052 -0.242 +14° 06' 32.00" 1.000E-01 0.500 F 0.210 -0.051 16.8 V 0.70 0.42 o 691 0.49 Yes Yes
1999JV6 O C 2015-01-21.26701 1.000E-05 09:09:49.160 1.500E-01 0.500 F 0.052 -0.413 +14° 08' 20.80" 1.000E-01 0.500 F 0.210 0.080 17.3 V 0.70 0.92 o 691 0.84 Yes Yes
2014YV34 O C 2015-01-21.27551 1.000E-05 09:14:59.040 1.500E-01 0.500 F 0.061 -0.495 +12° 28' 50.80" 1.000E-01 0.500 F 0.215 -0.062 18.5 V 0.70 0.25 o 691 1.00 Yes Yes
2001YK4 O C 2015-01-21.29059 1.000E-05 09:32:08.560 1.500E-01 0.500 F 0.109 -0.744 +10° 07' 45.20" 1.000E-01 0.500 F 0.198 0.002 21.0 V 0.70 0.61 o 691 1.50 Yes Yes
2001US16 O C 2015-01-21.29059 1.000E-05 09:32:27.370 1.500E-01 0.500 F 0.109 -0.189 +09° 57' 33.10" 1.000E-01 0.500 F 0.198 0.170 20.2 V 0.70 0.08 o 691 0.51 Yes Yes
2014YV34 O C 2015-01-21.29578 1.000E-05 09:14:57.550 1.500E-01 0.500 F 0.061 -0.359 +12° 27' 26.30" 1.000E-01 0.500 F 0.215 -0.001 18.5 V 0.70 0.25 o 691 0.72 Yes Yes
2001YK4 O C 2015-01-21.31087 1.000E-05 09:32:05.960 1.500E-01 0.500 F 0.109 -0.038 +10° 08' 01.30" 1.000E-01 0.500 F 0.198 -0.198 20.5 V 0.70 0.11 o 691 0.41 Yes Yes
2001US16 O C 2015-01-21.31087 1.000E-05 09:32:25.960 1.500E-01 0.500 F 0.109 -0.037 +09° 57' 38.50" 1.000E-01 0.500 F 0.198 -0.029 20.1 V 0.70 -0.02 o 691 0.09 Yes Yes
2014YV34 O C 2015-01-21.31606 1.000E-05 09:14:56.040 1.500E-01 0.500 F 0.099 -0.369 +12° 26' 01.60" 1.000E-01 0.500 F 0.233 -0.022 18.5 V 0.70 0.25 o 691 0.74 Yes Yes
2001YK4 O C 2015-01-21.33113 1.000E-05 09:32:03.260 1.500E-01 0.500 F 0.109 -0.798 +10° 08' 18.20" 1.000E-01 0.500 F 0.198 0.440 20.7 V 0.70 0.31 o 691 1.83 Yes Yes
2001US16 O C 2015-01-21.33113 1.000E-05 09:32:24.520 1.500E-01 0.500 F 0.109 -0.224 +09° 57' 44.10" 1.000E-01 0.500 F 0.198 0.010 20.2 V 0.70 0.08 o 691 0.45 Yes Yes
2001AF2 O C 2015-01-23.13665 1.000E-05 08:00:52.730 1.500E-01 0.500 F 0.015 -0.390 +26° 33' 09.20" 1.000E-01 0.500 F 0.257 0.050 o 691 0.79 Yes No
2001AF2 O C 2015-01-23.15702 1.000E-05 08:00:47.810 1.500E-01 0.500 F 0.015 -0.123 +26° 33' 43.90" 1.000E-01 0.500 F 0.257 -0.007 o 691 0.25 Yes No
2001AF2 O C 2015-01-23.17738 1.000E-05 08:00:42.850 1.500E-01 0.500 F 0.021 -0.248 +26° 34' 18.50" 1.000E-01 0.500 F 0.274 -0.078 o 691 0.52 Yes No
Ivar O C 2015-01-24.36416 1.000E-05 10:09:08.380 1.500E-01 0.500 F 0.058 -0.255 +13° 03' 55.80" 1.000E-01 0.500 F 0.190 -0.084 o 691 0.54 Yes No
Ivar O C 2015-01-24.40155 1.000E-05 10:09:06.290 1.500E-01 0.500 F 0.058 -0.238 +13° 04' 14.30" 1.000E-01 0.500 F 0.190 -0.138 o 691 0.55 Yes No
Ivar O C 2015-01-24.42184 1.000E-05 10:09:05.150 1.500E-01 0.500 F 0.058 -0.303 +13° 04' 24.50" 1.000E-01 0.500 F 0.190 0.012 o 691 0.61 Yes No
2014XF32 O C 2015-02-06.11450 1.000E-05 07:49:51.390 1.500E-01 0.500 F -0.048 0.107 +20° 14' 25.30" 1.000E-01 0.500 F 0.324 -0.085 20.6 V 0.70 0.26 o 691 0.28 Yes Yes
2014XF32 O C 2015-02-06.14311 1.000E-05 07:49:52.610 1.500E-01 0.500 F -0.048 -0.177 +20° 14' 26.30" 1.000E-01 0.500 F 0.324 0.075 20.7 V 0.70 0.36 o 691 0.40 Yes Yes
2014XF32 O C 2015-02-06.17175 1.000E-05 07:49:53.820 1.500E-01 0.500 F -0.048 -0.057 +20° 14' 26.90" 1.000E-01 0.500 F 0.324 0.067 20.7 V 0.70 0.36 o 691 0.18 Yes Yes
Ivar O C 2015-02-07.22189 1.000E-05 09:54:24.220 1.500E-01 0.500 F -0.028 -0.171 +15° 09' 34.90" 1.000E-01 0.500 F 0.283 0.021 16.1 V 0.70 -0.07 o 691 0.34 Yes Yes
2015CN62 O C 2015-02-07.22189 1.000E-05 09:50:11.910 1.500E-01 0.500 F 0.020 -0.296 +16° 13' 28.00" 1.000E-01 0.500 F 0.364 -0.087 19.1 V 0.70 0.50 o 691 0.62 Yes Yes
2015CN62 O C 2015-02-07.24407 1.000E-05 09:50:09.910 1.500E-01 0.500 F 0.020 -0.146 +16° 13' 16.40" 1.000E-01 0.500 F 0.364 -0.183 19.4 V 0.70 0.81 o 691 0.47 Yes Yes
Ivar O C 2015-02-07.24407 1.000E-05 09:54:22.580 1.500E-01 0.500 F -0.028 -0.271 +15° 09' 47.70" 1.000E-01 0.500 F 0.283 -0.068 15.9 V 0.70 -0.27 o 691 0.56 Yes Yes
2015CN62 O C 2015-02-07.26437 1.000E-05 09:50:08.060 1.500E-01 0.500 F 0.020 -0.031 +16° 13' 05.80" 1.000E-01 0.500 F 0.364 -0.150 19.4 V 0.70 0.81 o 691 0.31 Yes Yes
Ivar O C 2015-02-07.26437 1.000E-05 09:54:21.080 1.500E-01 0.500 F -0.028 -0.292 +15° 09' 59.50" 1.000E-01 0.500 F 0.283 -0.048 16.0 V 0.70 -0.17 o 691 0.59 Yes Yes
2014XF32 O C 2015-02-08.10675 1.000E-05 07:51:38.130 1.500E-01 0.500 F -0.008 -0.009 +20° 13' 44.80" 1.000E-01 0.500 F 0.294 0.206 20.4 V 0.70 -0.02 o 691 0.42 Yes Yes
2014XF32 O C 2015-02-08.12855 1.000E-05 07:51:39.160 1.500E-01 0.500 F -0.008 -0.178 +20° 13' 44.70" 1.000E-01 0.500 F 0.294 -0.251 20.3 V 0.70 -0.12 o 691 0.63 Yes Yes
2014XF32 O C 2015-02-08.16287 1.000E-05 07:51:40.770 1.500E-01 0.500 F -0.008 0.072 +20° 13' 45.20" 1.000E-01 0.500 F 0.294 -0.053 20.4 V 0.70 -0.02 o 691 0.19 Yes Yes
2014XF32 O C 2015-02-10.10399 1.000E-05 07:53:32.970 1.500E-01 0.500 F -0.008 -0.003 +20° 12' 35.00" 1.000E-01 0.500 F 0.294 0.017 20.7 V 0.70 0.19 o 691 0.03 Yes Yes
2014XF32 O C 2015-02-10.12032 1.000E-05 07:53:33.810 1.500E-01 0.500 F -0.008 -0.123 +20° 12' 35.10" 1.000E-01 0.500 F 0.294 0.104 20.7 V 0.70 0.19 o 691 0.33 Yes Yes
2014XF32 O C 2015-02-10.16875 1.000E-05 07:53:36.260 1.500E-01 0.500 F -0.008 0.003 +20° 12' 34.50" 1.000E-01 0.500 F 0.294 -0.111 20.4 V 0.70 -0.11 o 691 0.23 Yes Yes
Zephyr O C 2015-02-10.27818 1.000E-05 10:39:04.030 1.500E-01 0.500 F 0.218 -0.302 +06° 12' 30.00" 1.000E-01 0.500 F 0.184 -0.066 19.9 V 0.70 0.09 o 691 0.62 Yes Yes
Zephyr O C 2015-02-10.30980 1.000E-05 10:39:02.080 1.500E-01 0.500 F 0.218 -0.181 +06° 12' 43.60" 1.000E-01 0.500 F 0.184 0.274 20.0 V 0.70 0.19 o 691 0.66 Yes Yes
Zephyr O C 2015-02-10.33006 1.000E-05 10:39:00.810 1.500E-01 0.500 F 0.218 -0.371 +06° 12' 52.10" 1.000E-01 0.500 F 0.184 0.282 19.8 V 0.70 -0.01 o 691 0.93 Yes Yes
2003BQ35 O C 2015-02-10.44322 1.000E-05 11:41:04.910 1.500E-01 0.500 F 0.074 -0.338 +08° 14' 50.20" 1.000E-01 0.500 F 0.147 -0.023 21.1 V 0.70 -0.43 o 691 0.68 Yes Yes
2003BQ35 O C 2015-02-10.47330 1.000E-05 11:41:03.140 1.500E-01 0.500 F 0.074 -0.785 +08° 15' 18.10" 1.000E-01 0.500 F 0.147 -0.435 21.3 V 0.70 -0.23 o 691 1.80 Yes Yes
2003BQ35 O C 2015-02-10.49446 1.000E-05 11:41:01.990 1.500E-01 0.500 F 0.074 0.259 +08° 15' 38.30" 1.000E-01 0.500 F 0.147 -0.135 21.1 V 0.70 -0.43 o 691 0.59 Yes Yes
2001MZ7 O C 2015-02-10.51723 1.000E-05 16:54:50.060 1.500E-01 0.500 F -0.052 -0.116 +02° 02' 14.60" 1.000E-01 0.500 F 0.189 0.045 18.3 V 0.70 0.28 o 691 0.25 Yes Yes
2001MZ7 O C 2015-02-10.53057 1.000E-05 16:54:52.180 1.500E-01 0.500 F -0.052 0.368 +02° 02' 18.50" 1.000E-01 0.500 F 0.189 -0.033 18.2 V 0.70 0.18 o 691 0.74 Yes Yes
2001MZ7 O C 2015-02-10.54160 1.000E-05 16:54:53.870 1.500E-01 0.500 F -0.052 -0.155 +02° 02' 21.80" 1.000E-01 0.500 F 0.189 -0.023 18.4 V 0.70 0.38 o 691 0.31 Yes Yes
1998PB1 O C 2015-02-11.26540 1.000E-05 10:29:05.050 1.500E-01 0.500 F 0.179 0.048 +03° 57' 44.50" 1.000E-01 0.500 F 0.095 0.217 20.6 V 0.70 0.14 o 691 0.45 Yes Yes
1998PB1 O C 2015-02-11.29449 1.000E-05 10:29:03.000 1.500E-01 0.500 F 0.179 -0.179 +03° 57' 50.40" 1.000E-01 0.500 F 0.095 -0.079 20.8 V 0.70 0.34 o 691 0.39 Yes Yes
1998PB1 O C 2015-02-11.31473 1.000E-05 10:29:01.580 1.500E-01 0.500 F 0.179 -0.193 +03° 57' 54.80" 1.000E-01 0.500 F 0.095 0.012 20.7 V 0.70 0.25 o 691 0.39 Yes Yes
2011QF14 O C 2015-02-11.41245 1.000E-05 11:29:57.550 1.500E-01 0.500 F 0.172 -0.325 +05° 44' 56.70" 1.000E-01 0.500 F 0.311 -0.076 18.7 V 0.70 0.05 o 691 0.67 Yes Yes
2011QF14 O C 2015-02-11.44168 1.000E-05 11:29:55.200 1.500E-01 0.500 F 0.172 -0.417 +05° 45' 23.30" 1.000E-01 0.500 F 0.311 -0.095 18.8 V 0.70 0.15 o 691 0.86 Yes Yes
2011QF14 O C 2015-02-11.46190 1.000E-05 11:29:53.590 1.500E-01 0.500 F 0.172 -0.321 +05° 45' 41.70" 1.000E-01 0.500 F 0.311 -0.076 18.7 V 0.70 0.05 o 691 0.66 Yes Yes
1998BX7 O C 2015-02-17.32032 1.000E-05 11:55:56.140 1.500E-01 0.500 F 0.171 -0.234 +05° 59' 09.70" 1.000E-01 0.500 F 0.222 0.056 19.8 V 0.70 0.12 o 691 0.48 Yes Yes
1998BX7 O C 2015-02-17.34745 1.000E-05 11:55:54.730 1.500E-01 0.500 F 0.171 -0.276 +05° 59' 26.70" 1.000E-01 0.500 F 0.222 0.057 19.8 V 0.70 0.12 o 691 0.57 Yes Yes
1998BX7 O C 2015-02-17.37806 1.000E-05 11:55:53.150 1.500E-01 0.500 F 0.171 -0.086 +05° 59' 45.60" 1.000E-01 0.500 F 0.222 -0.209 20.7 V 0.70 1.02 o 691 0.45 Yes Yes
2002CY46 O C 2015-02-17.41526 1.000E-05 12:07:06.560 1.500E-01 0.500 F 0.240 -0.101 -05° 15' 28.00" 1.000E-01 0.500 F 0.148 0.246 19.7 V 0.70 0.00 o 691 0.53 Yes Yes
2002CY46 O C 2015-02-17.43549 1.000E-05 12:07:04.700 1.500E-01 0.500 F 0.240 -0.320 -05° 15' 41.40" 1.000E-01 0.500 F 0.148 -0.150 19.8 V 0.70 0.10 o 691 0.71 Yes Yes
2002CY46 O C 2015-02-17.45572 1.000E-05 12:07:02.860 1.500E-01 0.500 F 0.240 -0.236 -05° 15' 54.50" 1.000E-01 0.500 F 0.148 -0.256 19.7 V 0.70 0.00 o 691 0.70 Yes Yes
Verenia O C 2015-02-18.29986 1.000E-05 11:49:00.890 1.500E-01 0.500 F 0.277 -0.487 -00° 13' 53.30" 1.000E-01 0.500 F 0.085 0.313 21.1 V 0.70 -0.09 o 691 1.16 Yes Yes
Verenia O C 2015-02-18.31965 1.000E-05 11:48:59.930 1.500E-01 0.500 F 0.277 -0.018 -00° 13' 45.60" 1.000E-01 0.500 F 0.085 -0.531 21.5 V 0.70 0.31 o 691 1.07 Yes Yes
Verenia O C 2015-02-18.33917 1.000E-05 11:48:58.940 1.500E-01 0.500 F 0.277 -0.170 -00° 13' 36.70" 1.000E-01 0.500 F 0.085 -0.063 21.1 V 0.70 -0.09 o 691 0.36 Yes Yes
2010PR10 O C 2015-02-18.35005 1.000E-05 12:03:39.260 1.500E-01 0.500 F 0.155 0.772 -02° 00' 25.50" 1.000E-01 0.500 F 0.198 -0.488 20.3 V 0.70 -0.40 o 691 1.83 Yes Yes
2010PR10 O C 2015-02-18.36959 1.000E-05 12:03:36.140 1.500E-01 0.500 F 0.155 -1.579 -02° 00' 40.10" 1.000E-01 0.500 F 0.198 0.540 21.7 V 0.70 1.00 o 691 3.33 No Yes
2010PR10 O C 2015-02-18.38934 1.000E-05 12:03:33.220 1.500E-01 0.500 F 0.155 -0.353 -02° 00' 56.30" 1.000E-01 0.500 F 0.198 0.115 20.5 V 0.70 -0.19 o 691 0.75 Yes Yes
2001ME1 O C H 2015-02-18.41906 1.000E-05 13:03:13.120 1.500E-01 0.500 F 0.259 0.164 +01° 49' 22.20" 1.000E-01 0.500 F 0.370 -0.315 21.4 V 0.70 0.12 o 691 0.71 Yes Yes
2001ME1 O C H 2015-02-18.43813 1.000E-05 13:03:12.050 1.500E-01 0.500 F 0.259 -0.200 +01° 49' 30.70" 1.000E-01 0.500 F 0.370 -0.682 20.8 V 0.70 -0.48 o 691 1.42 Yes Yes
2001ME1 O C H 2015-02-18.45721 1.000E-05 13:03:11.060 1.500E-01 0.500 F 0.259 0.653 +01° 49' 39.60" 1.000E-01 0.500 F 0.370 -0.654 o 691 1.85 Yes No
2010NW117 O C H 2015-02-19.33352 1.000E-05 11:34:41.410 1.500E-01 0.500 F 0.223 0.282 -03° 18' 37.40" 1.000E-01 0.500 F 0.191 -0.931 21.9 V 0.70 0.39 o 691 1.95 Yes Yes
2010NW117 O C H 2015-02-19.35261 1.000E-05 11:34:40.040 1.500E-01 0.500 F 0.223 -0.828 -03° 18' 29.20" 1.000E-01 0.500 F 0.191 0.145 21.4 V 0.70 -0.11 o 691 1.70 Yes Yes
2010NW117 O C H 2015-02-19.37171 1.000E-05 11:34:38.760 1.500E-01 0.500 F 0.223 -0.562 -03° 18' 22.10" 1.000E-01 0.500 F 0.191 0.110 21.6 V 0.70 0.09 o 691 1.16 Yes Yes
2015CP3 O C 2015-02-25.15442 1.000E-05 09:37:35.340 1.500E-01 0.500 F 0.071 -0.674 +15° 42' 04.10" 1.000E-01 0.500 F 0.343 -0.293 21.2 V 0.70 0.27 o 691 1.51 Yes Yes
2015CP3 O C 2015-02-25.17354 1.000E-05 09:37:34.570 1.500E-01 0.500 F 0.071 -0.264 +15° 42' 01.30" 1.000E-01 0.500 F 0.343 0.010 21.1 V 0.70 0.17 o 691 0.54 Yes Yes
2015CP3 O C 2015-02-25.19265 1.000E-05 09:37:33.780 1.500E-01 0.500 F 0.071 0.010 +15° 41' 57.90" 1.000E-01 0.500 F 0.343 -0.229 21.1 V 0.70 0.17 o 691 0.47 Yes Yes
2015BX92 O C 2015-02-25.21281 1.000E-05 10:49:59.540 1.500E-01 0.500 F 0.149 0.139 +06° 27' 27.40" 1.000E-01 0.500 F 0.149 0.093 19.3 V 0.70 0.48 o 691 0.35 Yes Yes
2015BX92 O C 2015-02-25.23194 1.000E-05 10:50:01.880 1.500E-01 0.500 F 0.149 -0.255 +06° 28' 25.70" 1.000E-01 0.500 F 0.149 0.030 19.2 V 0.70 0.38 o 691 0.53 Yes Yes
2015BX92 O C 2015-02-25.28562 1.000E-05 10:50:08.430 1.500E-01 0.500 F 0.154 -0.320 +06° 31' 09.20" 1.000E-01 0.500 F 0.102 0.118 19.2 V 0.70 0.38 o 691 0.69 Yes Yes
2015FG36 O C 2015-02-25.42089 1.000E-05 11:43:55.640 1.500E-01 0.500 F 0.299 -0.345 -03° 06' 20.60" 1.000E-01 0.500 F 0.115 0.164 20.8 V 0.70 -0.19 o 691 0.77 Yes Yes
2010PR10 O C 2015-02-25.42328 1.000E-05 11:45:18.390 1.500E-01 0.500 F 0.225 -0.376 -03° 25' 36.30" 1.000E-01 0.500 F 0.199 -0.219 20.4 V 0.70 -0.05 o 691 0.87 Yes Yes
1999CU3 O C 2015-02-25.42806 1.000E-05 12:02:59.380 1.500E-01 0.500 F 0.204 -0.313 -04° 17' 12.50" 1.000E-01 0.500 F 0.134 -0.243 17.7 V 0.70 0.27 o 691 0.79 Yes Yes
2015FG36 O C 2015-02-25.43284 1.000E-05 11:43:54.440 1.500E-01 0.500 F 0.299 -0.570 -03° 06' 35.70" 1.000E-01 0.500 F 0.115 0.134 20.9 V 0.70 -0.09 o 691 1.18 Yes Yes
2010PR10 O C 2015-02-25.43523 1.000E-05 11:45:16.310 1.500E-01 0.500 F 0.225 0.001 -03° 25' 43.80" 1.000E-01 0.500 F 0.199 -0.103 20.3 V 0.70 -0.15 o 691 0.21 Yes Yes
1999CU3 O C 2015-02-25.44000 1.000E-05 12:02:58.430 1.500E-01 0.500 F 0.204 -0.517 -04° 17' 20.30" 1.000E-01 0.500 F 0.134 -0.193 17.7 V 0.70 0.27 o 691 1.11 Yes Yes
2015FG36 O C 2015-02-25.44478 1.000E-05 11:43:53.290 1.500E-01 0.500 F 0.299 -0.152 -03° 06' 50.40" 1.000E-01 0.500 F 0.115 0.482 20.9 V 0.70 -0.09 o 691 1.02 Yes Yes
2010PR10 O C 2015-02-25.44717 1.000E-05 11:45:14.180 1.500E-01 0.500 F 0.225 -0.448 -03° 25' 51.10" 1.000E-01 0.500 F 0.199 0.195 20.2 V 0.70 -0.24 o 691 0.98 Yes Yes
1999CU3 O C 2015-02-25.45195 1.000E-05 12:02:57.510 1.500E-01 0.500 F 0.204 -0.277 -04° 17' 28.20" 1.000E-01 0.500 F 0.134 -0.240 17.7 V 0.70 0.27 o 691 0.73 Yes Yes
2015BL515 O C 2015-02-26.14484 1.000E-05 09:55:30.100 1.500E-01 0.500 F 0.124 -0.853 +12° 24' 05.80" 1.000E-01 0.500 F 0.215 -0.814 20.3 V 0.70 0.22 o 691 2.43 Yes Yes
1994CK1 O C 2015-02-26.14723 1.000E-05 10:01:54.280 1.500E-01 0.500 F 0.092 -0.252 +11° 39' 12.60" 1.000E-01 0.500 F 0.163 -0.230 21.0 V 0.70 0.37 o 691 0.68 Yes Yes
2015BL515 O C 2015-02-26.16402 1.000E-05 09:55:27.930 1.500E-01 0.500 F 0.124 -0.747 +12° 23' 30.60" 1.000E-01 0.500 F 0.215 -0.142 20.7 V 0.70 0.62 o 691 1.55 Yes Yes
1994CK1 O C 2015-02-26.16641 1.000E-05 10:01:52.710 1.500E-01 0.500 F 0.092 -0.471 +11° 39' 19.90" 1.000E-01 0.500 F 0.163 -0.039 20.7 V 0.70 0.07 o 691 0.94 Yes Yes
2015BL515 O C 2015-02-26.18318 1.000E-05 09:55:25.760 1.500E-01 0.500 F 0.124 -0.444 +12° 22' 54.80" 1.000E-01 0.500 F 0.215 -0.046 20.5 V 0.70 0.41 o 691 0.91 Yes Yes
1994CK1 O C 2015-02-26.18558 1.000E-05 10:01:51.170 1.500E-01 0.500 F 0.092 -0.220 +11° 39' 27.00" 1.000E-01 0.500 F 0.163 -0.034 20.6 V 0.70 -0.03 o 691 0.44 Yes Yes
2006BG55 O C 2015-02-26.21992 1.000E-05 10:53:25.840 1.500E-01 0.500 F 0.096 -0.542 +15° 07' 20.40" 1.000E-01 0.500 F 0.155 0.230 20.3 V 0.70 0.06 o 691 1.18 Yes Yes
2006BG55 O C 2015-02-26.23913 1.000E-05 10:53:23.720 1.500E-01 0.500 F 0.096 -0.434 +15° 07' 42.60" 1.000E-01 0.500 F 0.155 0.225 20.7 V 0.70 0.46 o 691 0.98 Yes Yes
2006BG55 O C 2015-02-26.25831 1.000E-05 10:53:21.570 1.500E-01 0.500 F 0.096 -0.737 +15° 08' 04.90" 1.000E-01 0.500 F 0.155 0.377 20.2 V 0.70 -0.04 o 691 1.66 Yes Yes
2001ME1 O C 2015-02-26.45383 1.000E-05 12:55:20.350 1.500E-01 0.500 F 0.185 -0.282 +02° 54' 33.00" 1.000E-01 0.500 F 0.212 0.287 20.8 V 0.70 -0.40 o 691 0.81 Yes Yes
2014YD35 O C 2015-02-26.45383 1.000E-05 12:58:55.110 1.500E-01 0.500 F 0.185 0.180 +02° 58' 18.60" 1.000E-01 0.500 F 0.212 0.469 20.0 V 0.70 -0.40 o 691 1.01 Yes Yes
2001ME1 O C 2015-02-26.47302 1.000E-05 12:55:19.100 1.500E-01 0.500 F 0.185 -0.242 +02° 54' 42.20" 1.000E-01 0.500 F 0.212 -0.191 20.7 V 0.70 -0.50 o 691 0.62 Yes Yes
2014YD35 O C 2015-02-26.47302 1.000E-05 12:58:52.680 1.500E-01 0.500 F 0.185 0.011 +02° 57' 32.50" 1.000E-01 0.500 F 0.212 0.028 20.1 V 0.70 -0.30 o 691 0.06 Yes Yes
2001ME1 O C 2015-02-26.49221 1.000E-05 12:55:17.830 1.500E-01 0.500 F 0.185 -0.512 +02° 54' 51.90" 1.000E-01 0.500 F 0.212 -0.167 20.6 V 0.70 -0.60 o 691 1.08 Yes Yes
2014YD35 O C 2015-02-26.49221 1.000E-05 12:58:50.250 1.500E-01 0.500 F 0.185 -0.252 +02° 56' 46.60" 1.000E-01 0.500 F 0.212 -0.202 20.1 V 0.70 -0.30 o 691 0.65 Yes Yes
2015DO155 O C 2015-02-27.41571 1.000E-05 12:41:43.900 1.500E-01 0.500 F 0.229 -0.486 +05° 46' 37.40" 1.000E-01 0.500 F 0.097 0.168 20.3 V 0.70 -0.18 o 691 1.03 Yes Yes
2015DO155 O C 2015-02-27.43491 1.000E-05 12:41:47.000 1.500E-01 0.500 F 0.229 0.070 +05° 47' 11.70" 1.000E-01 0.500 F 0.097 0.177 20.5 V 0.70 0.02 o 691 0.38 Yes Yes
2015DO155 O C 2015-02-27.45409 1.000E-05 12:41:50.050 1.500E-01 0.500 F 0.229 -0.175 +05° 47' 46.00" 1.000E-01 0.500 F 0.097 0.224 20.3 V 0.70 -0.18 o 691 0.57 Yes Yes
2007AB2 O C H 2015-03-10.12551 1.000E-05 09:25:04.570 1.500E-01 0.500 F 0.133 0.225 +16° 56' 06.70" 1.000E-01 0.500 F 0.263 -0.291 21.2 V 0.70 -0.31 o 691 0.74 Yes Yes
2015CP3 O C 2015-03-10.13494 1.000E-05 09:32:12.620 1.500E-01 0.500 F 0.053 0.093 +14° 41' 27.30" 1.000E-01 0.500 F 0.336 0.241 20.8 V 0.70 -0.25 o 691 0.54 Yes Yes
1990UQ O C 2015-03-10.13967 1.000E-05 09:39:50.710 1.500E-01 0.500 F 0.104 -0.034 +16° 37' 56.90" 1.000E-01 0.500 F 0.341 -0.101 20.3 V 0.70 0.37 o 691 0.21 Yes Yes
2007AB2 O C H 2015-03-10.18218 1.000E-05 09:25:03.150 1.500E-01 0.500 F 0.133 -0.777 +16° 56' 12.20" 1.000E-01 0.500 F 0.263 -0.844 21.3 V 0.70 -0.22 o 691 2.30 Yes Yes
2015CP3 O C 2015-03-10.19163 1.000E-05 09:32:11.670 1.500E-01 0.500 F 0.053 0.374 +14° 41' 06.10" 1.000E-01 0.500 F 0.336 0.138 20.7 V 0.70 -0.35 o 691 0.85 Yes Yes
1990UQ O C 2015-03-10.19634 1.000E-05 09:39:44.930 1.500E-01 0.500 F 0.104 -0.070 +16° 38' 31.20" 1.000E-01 0.500 F 0.341 -0.005 19.8 V 0.70 -0.13 o 691 0.14 Yes Yes
2007AB2 O C H 2015-03-10.23885 1.000E-05 09:25:01.780 1.500E-01 0.500 F 0.133 -0.742 +16° 56' 18.60" 1.000E-01 0.500 F 0.263 -0.076 21.3 V 0.70 -0.22 o 691 1.50 Yes Yes
2015CP3 O C 2015-03-10.24828 1.000E-05 09:32:10.600 1.500E-01 0.500 F 0.053 -0.459 +14° 40' 44.20" 1.000E-01 0.500 F 0.336 -0.039 20.4 V 0.70 -0.66 o 691 0.98 Yes Yes
1990UQ O C 2015-03-10.25300 1.000E-05 09:39:39.110 1.500E-01 0.500 F 0.104 -0.448 +16° 39' 05.20" 1.000E-01 0.500 F 0.341 0.115 20.1 V 0.70 0.17 o 691 0.93 Yes Yes
Zephyr O C 2015-03-11.14040 1.000E-05 10:06:42.250 1.500E-01 0.500 F 0.155 0.130 +09° 57' 48.20" 1.000E-01 0.500 F 0.073 -0.199 19.6 V 0.70 -0.11 o 691 0.48 Yes Yes
Zephyr O C 2015-03-11.17311 1.000E-05 10:06:40.090 1.500E-01 0.500 F 0.155 0.162 +09° 58' 04.20" 1.000E-01 0.500 F 0.073 0.785 20.6 V 0.70 0.89 o 691 1.60 Yes Yes
Zephyr O C 2015-03-11.20573 1.000E-05 10:06:37.870 1.500E-01 0.500 F 0.155 -0.699 +09° 58' 18.30" 1.000E-01 0.500 F 0.073 -0.058 19.6 V 0.70 -0.11 o 691 1.40 Yes Yes
2015CA1 O C 2015-03-11.47392 1.000E-05 13:30:50.490 1.500E-01 0.500 F 0.243 -0.105 -08° 09' 47.20" 1.000E-01 0.500 F 0.121 0.203 18.3 V 0.70 0.51 o 691 0.47 Yes Yes
2015CA1 O C 2015-03-11.49369 1.000E-05 13:30:55.210 1.500E-01 0.500 F 0.336 -0.183 -08° 12' 28.80" 1.000E-01 0.500 F 0.131 0.070 18.3 V 0.70 0.51 o 691 0.40 Yes Yes
2015CA1 O C 2015-03-11.51255 1.000E-05 13:30:59.740 1.500E-01 0.500 F 0.336 -0.206 -08° 15' 02.90" 1.000E-01 0.500 F 0.131 -0.040 18.5 V 0.70 0.71 o 691 0.43 Yes Yes
2007EF88 O C 2015-03-14.17605 1.000E-05 11:53:26.450 1.500E-01 0.500 F 0.197 0.537 +07° 23' 46.00" 1.000E-01 0.500 F 0.095 -0.180 20.6 V 0.70 0.23 o 691 1.19 Yes Yes
2007EF88 O C 2015-03-14.19496 1.000E-05 11:53:29.590 1.500E-01 0.500 F 0.197 0.429 +07° 24' 15.00" 1.000E-01 0.500 F 0.095 -0.022 21.2 V 0.70 0.83 o 691 0.91 Yes Yes
2007EF88 O C 2015-03-14.21388 1.000E-05 11:53:32.690 1.500E-01 0.500 F 0.197 0.230 +07° 24' 44.10" 1.000E-01 0.500 F 0.095 0.312 20.9 V 0.70 0.53 o 691 0.82 Yes Yes
Zephyr O C 2015-03-15.13858 1.000E-05 10:02:30.700 1.500E-01 0.500 F 0.124 -0.084 +10° 27' 29.50" 1.000E-01 0.500 F 0.095 0.028 20.0 V 0.70 0.21 o 691 0.18 Yes Yes

[1-200] [201-400] [401-600] [601-800] [801-1000] [1001-1200] [1201-1400] [1401-1600] [1601-1800] [1801-2000] [2001-2200] [2201-2400] [2401-2600] [2601-2800] [2801-3000] [3001-3200] [3201-3400] [3401-3600] [3601-3800] [3801-4000] [4001-4200] [4201-4400] [4401-4600] [4601-4800] [4801-5000] [5001-5200] [5201-5400] [5401-5600] [5601-5800] [5801-6000] [6001-6200] [6201-6400] [6401-6600] [6601-6800] [6801-7000] [7001-7200] [7201-7400] [7401-7600] [7601-7800] [7801-8000] [8001-8200] [8201-8400] [8401-8600] [8601-8800] [8801-9000] [9001-9200] [9201-9400] [9401-9600] [9601-9800] [9801-10000] [10001-10200] [10201-10400] [10401-10600] [10601-10800] [10801-11000] [11001-11200] [11201-11400] [11401-11600] [11601-11800] [11801-12000] [12001-12200] [12201-12400] [12401-12600] [12601-12800] [12801-13000] [13001-13200] [13201-13400] [13401-13600] [13601-13800] [13801-14000] [14001-14200] [14201-14400] [14401-14600] [14601-14800] [14801-15000] [15001-15200] [15201-15400] [15401-15600] [15601-15800] [15801-16000] [16001-16200] [16201-16400] [16401-16600] [16601-16800] [16801-17000] [17001-17200] [17201-17400] [17401-17600] [17601-17800] [17801-18000] [18001-18200] [18201-18400] [18401-18600] [18601-18800] [18801-19000] [19001-19200] [19201-19400] [19401-19600] [19601-19800] [19801-20000] [20001-20200] [20201-20400] [20401-20600] [20601-20800] [20801-21000] [21001-21200] [21201-21400] [21401-21600] [21601-21800] [21801-22000] [22001-22200] [22201-22400] [22401-22600] [22601-22800] [22801-23000] [23001-23200] [23201-23400] [23401-23600] [23601-23800] [23801-24000] [24001-24200] [24201-24400] [24401-24600] [24601-24800] [24801-25000] [25001-25200] [25201-25400] [25401-25600] [25601-25800] [25801-26000] [26001-26200] [26201-26400] [26401-26600] [26601-26800] [26801-27000] [27001-27200] [27201-27400] [27401-27600] [27601-27800] [27801-28000] [28001-28200] [28201-28400] [28401-28600] [28601-28800] [28801-29000] [29001-29200] [29201-29400] [29401-29600] [29601-29800] [29801-30000] [30001-30200] [30201-30400] [30401-30600] [30601-30800] [30801-31000] [31001-31200] [31201-31400] [31401-31600] [31601-31800] [31801-32000] [32001-32200] [32201-32400] [32401-32600] [32601-32800] [32801-33000] [33001-33200] [33201-33400] [33401-33600] [33601-33800] [33801-34000] [34001-34200] [34201-34400] [34401-34600] [34601-34800] [34801-35000] [35001-35200] [35201-35400] [35401-35600] [35601-35800] [35801-36000] [36001-36200] [36201-36400] [36401-36600] [36601-36800] [36801-37000] [37001-37200] [37201-37400] [37401-37600] [37601-37800] [37801-38000] [38001-38200] [38201-38400] [38401-38600] [38601-38800] [38801-39000] [39001-39200] [39201-39400] [39401-39600] [39601-39800] [39801-40000] [40001-40200] [40201-40400] [40401-40600] [40601-40800] [40801-41000] [41001-41200] [41201-41400] [41401-41600] [41601-41800] [41801-42000] [42001-42200] [42201-42400] [42401-42600] [42601-42800] [42801-43000] [43001-43200] [43201-43400] [43401-43600] [43601-43800] [43801-44000] [44001-44200] [44201-44400] [44401-44600] [44601-44800] [44801-45000] [45001-45200] [45201-45400] [45401-45600] [45601-45800] [45801-46000] [46001-46200] [46201-46400] [46401-46600] [46601-46800] [46801-47000] [47001-47200] [47201-47400] [47401-47600] [47601-47800] [47801-48000] [48001-48200] [48201-48400] [48401-48600] [48601-48800] [48801-49000] [49001-49200] [49201-49400] [49401-49600] [49601-49800] [49801-50000] [50001-50200] [50201-50388]